createdAt,value
2018-10-19T00:03:07.133Z,9.86
2018-10-19T00:08:09.292Z,9.82
2018-10-19T00:13:11.395Z,9.85
2018-10-19T00:18:13.523Z,9.63
2018-10-19T00:23:15.637Z,9.54
2018-10-19T00:28:17.748Z,9.14
2018-10-19T00:33:19.893Z,9.35
2018-10-19T00:38:22.012Z,9.46
2018-10-19T00:43:24.127Z,9.57
2018-10-19T00:48:26.222Z,9.53
2018-10-19T00:53:28.306Z,9.43
2018-10-19T00:58:30.403Z,9.36
2018-10-19T01:03:32.525Z,9.20
2018-10-19T01:08:34.702Z,9.16
2018-10-19T01:13:36.815Z,9.12
2018-10-19T01:18:39.029Z,9.21
2018-10-19T01:23:41.116Z,9.15
2018-10-19T01:28:43.220Z,9.12
2018-10-19T01:33:52.236Z,9.11
2018-10-19T01:38:54.401Z,9.10
2018-10-19T01:43:56.457Z,8.97
2018-10-19T01:48:58.551Z,8.94
2018-10-19T01:54:01.006Z,8.88
2018-10-19T01:59:03.169Z,8.98
2018-10-19T02:04:05.235Z,8.77
2018-10-19T02:09:07.918Z,8.86
2018-10-19T02:14:09.970Z,8.61
2018-10-19T02:19:12.068Z,8.70
2018-10-19T02:24:14.161Z,8.63
2018-10-19T02:29:16.258Z,8.73
2018-10-19T02:34:18.437Z,8.82
2018-10-19T02:39:20.560Z,8.82
2018-10-19T02:44:22.687Z,8.74
2018-10-19T02:49:24.790Z,8.89
2018-10-19T02:54:26.888Z,8.92
2018-10-19T02:59:28.999Z,8.93
2018-10-19T03:04:31.121Z,8.85
2018-10-19T03:09:33.236Z,8.66
2018-10-19T03:14:35.371Z,8.54
2018-10-19T03:19:37.494Z,8.71
2018-10-19T03:24:39.595Z,8.73
2018-10-19T03:29:41.726Z,8.68
2018-10-19T03:34:43.855Z,7.37
2018-10-19T03:39:45.972Z,8.13
2018-10-19T03:44:48.116Z,8.31
2018-10-19T03:49:50.199Z,8.50
2018-10-19T03:54:52.406Z,8.09
2018-10-19T03:59:54.532Z,8.02
2018-10-19T04:04:56.696Z,8.35
2018-10-19T04:09:58.741Z,8.36
2018-10-19T04:15:00.890Z,8.37
2018-10-19T04:20:03.241Z,8.35
2018-10-19T04:25:05.419Z,8.43
2018-10-19T04:30:07.810Z,8.52
2018-10-19T04:35:10.031Z,8.49
2018-10-19T04:40:16.569Z,8.53
2018-10-19T04:45:19.319Z,8.42
2018-10-19T04:50:21.436Z,8.35
2018-10-19T04:55:23.539Z,7.89
2018-10-19T05:00:25.629Z,8.14
2018-10-19T05:05:27.863Z,8.00
2018-10-19T05:10:29.887Z,8.14
2018-10-19T05:15:32.028Z,8.04
2018-10-19T05:20:34.108Z,8.12
2018-10-19T05:25:36.197Z,8.15
2018-10-19T05:30:38.265Z,8.15
2018-10-19T05:35:40.408Z,8.11
2018-10-19T05:40:42.519Z,8.11
2018-10-19T05:45:44.636Z,8.04
2018-10-19T05:50:46.758Z,8.06
2018-10-19T05:55:48.898Z,8.09
2018-10-19T06:00:51.064Z,8.09
2018-10-19T06:05:53.208Z,8.06
2018-10-19T06:10:55.352Z,7.94
2018-10-19T06:15:57.447Z,7.93
2018-10-19T06:20:59.613Z,7.81
2018-10-19T06:26:01.834Z,7.75
2018-10-19T06:31:04.135Z,7.55
2018-10-19T06:36:06.286Z,7.42
2018-10-19T06:41:08.454Z,7.64
2018-10-19T06:46:10.510Z,7.69
2018-10-19T06:51:12.609Z,7.71
2018-10-19T06:56:14.760Z,8.12
2018-10-19T07:01:16.849Z,8.02
2018-10-19T07:06:19.033Z,8.05
2018-10-19T07:11:21.306Z,7.27
2018-10-19T07:16:23.469Z,7.72
2018-10-19T07:21:25.613Z,8.16
2018-10-19T07:26:27.738Z,8.04
2018-10-19T07:31:29.846Z,8.51
2018-10-19T07:36:32.060Z,8.47
2018-10-19T07:41:34.118Z,8.84
2018-10-19T07:46:36.270Z,9.15
2018-10-19T07:51:38.412Z,8.70
2018-10-19T07:56:40.482Z,8.51
2018-10-19T08:01:42.619Z,9.03
2018-10-19T08:06:44.751Z,8.40
2018-10-19T08:11:46.869Z,8.79
2018-10-19T08:16:49.004Z,9.02
2018-10-19T08:21:51.334Z,9.45
2018-10-19T08:26:53.434Z,9.75
2018-10-19T08:31:55.618Z,9.85
2018-10-19T08:36:57.755Z,10.05
2018-10-19T08:41:59.891Z,10.15
2018-10-19T08:47:02.110Z,10.51
2018-10-19T08:52:04.325Z,10.67
2018-10-19T08:57:06.549Z,10.91
2018-10-19T09:02:08.594Z,11.29
2018-10-19T09:07:10.695Z,11.75
2018-10-19T09:12:12.824Z,11.45
2018-10-19T09:17:15.037Z,11.84
2018-10-19T09:22:17.460Z,12.06
2018-10-19T09:27:19.857Z,12.30
2018-10-19T09:32:21.971Z,12.36
2018-10-19T09:37:24.120Z,12.43
2018-10-19T09:42:26.270Z,12.35
2018-10-19T09:47:28.520Z,12.42
2018-10-19T09:52:30.564Z,12.63
2018-10-19T09:57:32.695Z,12.63
2018-10-19T10:02:34.861Z,12.61
2018-10-19T10:07:36.960Z,12.66
2018-10-19T10:12:39.054Z,12.79
2018-10-19T10:17:41.178Z,13.07
2018-10-19T10:22:43.303Z,13.15
2018-10-19T10:27:45.478Z,12.98
2018-10-19T10:32:47.630Z,12.96
2018-10-19T10:37:49.978Z,13.53
2018-10-19T10:42:52.067Z,13.74
2018-10-19T10:47:54.196Z,14.22
2018-10-19T10:52:56.308Z,13.79
2018-10-19T10:57:58.465Z,13.41
2018-10-19T11:03:00.575Z,13.85
2018-10-19T11:08:02.703Z,14.62
2018-10-19T11:13:04.946Z,14.35
2018-10-19T11:18:07.277Z,13.96
2018-10-19T11:23:09.419Z,14.04
2018-10-19T11:28:11.848Z,13.76
2018-10-19T11:33:13.983Z,14.88
2018-10-19T11:38:16.149Z,15.79
2018-10-19T11:43:18.334Z,15.28
2018-10-19T11:48:20.404Z,16.54
2018-10-19T11:53:22.536Z,17.34
2018-10-19T11:58:24.690Z,17.12
2018-10-19T12:03:26.837Z,17.76
2018-10-19T12:08:28.912Z,17.72
2018-10-19T12:13:31.108Z,16.18
2018-10-19T12:18:33.237Z,15.32
2018-10-19T12:23:35.353Z,14.89
2018-10-19T12:28:37.513Z,14.55
2018-10-19T12:33:39.656Z,14.31
2018-10-19T12:38:41.836Z,14.14
2018-10-19T12:43:43.951Z,14.19
2018-10-19T12:48:46.082Z,14.11
2018-10-19T12:53:48.357Z,13.99
2018-10-19T12:58:51.471Z,13.89
2018-10-19T13:03:53.655Z,13.51
2018-10-19T13:08:55.897Z,13.55
2018-10-19T13:13:57.960Z,13.47
2018-10-19T13:19:00.098Z,15.66
2018-10-19T13:24:02.246Z,16.30
2018-10-19T13:29:04.833Z,15.15
2018-10-19T13:34:06.986Z,14.47
2018-10-19T13:39:10.778Z,14.08
2018-10-19T13:44:12.826Z,14.88
2018-10-19T13:49:14.966Z,14.60
2018-10-19T13:54:17.114Z,14.33
2018-10-19T13:59:19.345Z,14.14
2018-10-19T14:04:21.469Z,14.25
2018-10-19T14:09:23.629Z,14.58
2018-10-19T14:14:25.755Z,14.88
2018-10-19T14:19:27.856Z,15.52
2018-10-19T14:24:29.978Z,16.35
2018-10-19T14:29:32.104Z,17.01
2018-10-19T14:34:34.245Z,17.00
2018-10-19T14:39:36.459Z,16.20
2018-10-19T14:44:38.733Z,15.43
2018-10-19T14:49:40.898Z,14.80
2018-10-19T14:54:43.169Z,14.40
2018-10-19T14:59:45.210Z,14.18
2018-10-19T15:04:47.423Z,14.13
2018-10-19T15:09:49.738Z,13.98
2018-10-19T15:14:51.680Z,13.86
2018-10-19T15:19:53.801Z,13.73
2018-10-19T15:24:56.099Z,13.68
2018-10-19T15:29:58.339Z,13.59
2018-10-19T15:35:00.451Z,13.46
2018-10-19T15:40:02.723Z,13.42
2018-10-19T15:45:06.648Z,13.31
2018-10-19T15:50:08.980Z,12.89
2018-10-19T15:55:11.156Z,13.04
2018-10-19T16:00:13.422Z,13.14
2018-10-19T16:05:15.514Z,13.22
2018-10-19T16:10:17.692Z,13.22
2018-10-19T16:15:19.824Z,13.19
2018-10-19T16:20:21.947Z,13.08
2018-10-19T16:25:24.081Z,12.92
2018-10-19T16:30:26.227Z,12.87
2018-10-19T16:35:28.377Z,12.70
2018-10-19T16:40:30.553Z,12.67
2018-10-19T16:45:32.787Z,12.53
2018-10-19T16:50:35.054Z,12.42
2018-10-19T16:55:37.163Z,12.26
2018-10-19T17:00:39.347Z,12.40
2018-10-19T17:05:41.520Z,12.40
2018-10-19T17:10:43.672Z,12.23
2018-10-19T17:15:45.827Z,12.30
2018-10-19T17:20:48.086Z,12.34
2018-10-19T17:25:50.272Z,12.02
2018-10-19T17:30:52.539Z,12.15
2018-10-19T17:35:54.685Z,11.87
2018-10-19T17:40:56.907Z,11.90
2018-10-19T17:45:59.115Z,12.04
2018-10-19T17:51:01.306Z,12.01
2018-10-19T17:56:03.646Z,12.00
2018-10-19T18:01:05.934Z,11.93
2018-10-19T18:06:08.203Z,11.96
2018-10-19T18:11:10.646Z,12.03
2018-10-19T18:16:13.697Z,11.99
2018-10-19T18:21:16.044Z,11.85
2018-10-19T18:26:18.151Z,11.79
2018-10-19T18:31:20.410Z,11.84
2018-10-19T18:36:22.616Z,11.74
2018-10-19T18:41:24.874Z,11.47
2018-10-19T18:46:27.335Z,11.20
2018-10-19T18:51:30.098Z,11.33
2018-10-19T18:56:32.424Z,11.55
2018-10-19T19:01:34.818Z,11.65
2018-10-19T19:06:38.909Z,11.57
2018-10-19T19:11:41.722Z,11.36
2018-10-19T19:16:44.675Z,11.48
2018-10-19T19:21:47.104Z,11.36
2018-10-19T19:26:49.510Z,11.43
2018-10-19T19:31:52.338Z,11.54
2018-10-19T19:36:55.084Z,11.51
2018-10-19T19:42:03.722Z,11.53
2018-10-19T19:47:06.613Z,11.56
2018-10-19T19:52:10.957Z,11.44
2018-10-19T19:57:14.889Z,11.47
2018-10-19T20:02:17.570Z,11.48
2018-10-19T20:07:20.233Z,11.47
2018-10-19T20:12:22.658Z,11.57
2018-10-19T20:17:25.343Z,11.33
2018-10-19T20:22:27.815Z,11.37
2018-10-19T20:27:30.668Z,10.88
2018-10-19T20:32:32.967Z,10.93
2018-10-19T20:37:35.163Z,10.99
2018-10-19T20:42:37.390Z,11.02
2018-10-19T20:47:39.630Z,11.04
2018-10-19T20:52:41.802Z,11.13
2018-10-19T20:57:43.945Z,11.33
2018-10-19T21:02:46.172Z,10.42
2018-10-19T21:07:48.351Z,10.37
2018-10-19T21:12:50.540Z,10.13
2018-10-19T21:17:52.711Z,10.86
2018-10-19T21:22:54.909Z,11.19
2018-10-19T21:27:57.058Z,10.69
2018-10-19T21:32:59.249Z,11.03
2018-10-19T21:38:01.477Z,10.99
2018-10-19T21:43:03.791Z,11.26
2018-10-19T21:48:05.919Z,11.28
2018-10-19T21:53:08.066Z,11.35
2018-10-19T21:58:10.223Z,11.34
2018-10-19T22:03:12.349Z,11.36
2018-10-19T22:08:14.520Z,11.30
2018-10-19T22:13:16.742Z,11.29
2018-10-19T22:18:18.836Z,11.28
2018-10-19T22:23:21.021Z,11.13
2018-10-19T22:28:23.104Z,10.91
2018-10-19T22:33:25.231Z,11.13
2018-10-19T22:38:27.356Z,11.20
2018-10-19T22:43:29.843Z,11.03
2018-10-19T22:48:31.964Z,10.85
2018-10-19T22:53:34.143Z,11.13
2018-10-19T22:58:36.288Z,11.21
2018-10-19T23:03:38.416Z,11.11
2018-10-19T23:08:40.581Z,10.76
2018-10-19T23:13:42.841Z,11.01
2018-10-19T23:18:44.991Z,11.08
2018-10-19T23:23:47.157Z,11.11
2018-10-19T23:28:49.351Z,10.87
2018-10-19T23:33:51.453Z,10.92
2018-10-19T23:38:53.619Z,10.32
2018-10-19T23:43:55.908Z,10.78
2018-10-19T23:48:57.977Z,10.87
2018-10-19T23:54:00.087Z,10.77
2018-10-19T23:59:02.319Z,10.99
